Time;durP1;ratioP1;P1;durP2;ratioP2;P2;SDS_P1;SDS_P2;PMS_P1;PMS_P2;Temp;Humidity;BMP_temperature;BMP_pressure;BME280_temperature;BME280_humidity;BME280_pressure;Samples;Min_cycle;Max_cycle;Signal;HPM_P1;HPM_P2
2022/01/11 00:00:05;;;;;;;43.58;20.35;;;-2.40;99.90;;;;;;4915998;28;20039;-85
2022/01/11 00:02:34;;;;;;;53.22;21.00;;;-2.40;99.90;;;;;;4937635;28;20041;-85
2022/01/11 00:04:59;;;;;;;49.47;21.10;;;-2.40;99.90;;;;;;4927425;28;20039;-85
2022/01/11 00:07:28;;;;;;;47.60;20.25;;;-2.50;99.90;;;;;;4945380;28;20082;-86
2022/01/11 00:09:56;;;;;;;46.65;21.35;;;-2.50;99.90;;;;;;4925847;28;20113;-86
2022/01/11 00:12:21;;;;;;;46.13;21.27;;;-2.50;99.90;;;;;;4927168;28;20034;-86
2022/01/11 00:14:47;;;;;;;48.08;21.10;;;-2.50;99.90;;;;;;4945425;28;20058;-85
2022/01/11 00:17:12;;;;;;;46.85;20.70;;;-2.50;99.90;;;;;;4942284;28;20035;-86
2022/01/11 00:19:38;;;;;;;46.20;21.90;;;-2.50;99.90;;;;;;4933188;28;20488;-85
2022/01/11 00:22:07;;;;;;;54.67;22.20;;;-2.50;99.90;;;;;;4928024;28;20054;-85
2022/01/11 00:24:34;;;;;;;51.38;21.80;;;-2.50;99.90;;;;;;4934846;28;20035;-85
2022/01/11 00:27:05;;;;;;;46.60;20.30;;;-2.50;99.90;;;;;;4914583;28;20146;-85
2022/01/11 00:29:31;;;;;;;44.03;20.60;;;-2.60;99.90;;;;;;4940182;28;20152;-86
2022/01/11 00:32:01;;;;;;;44.22;20.13;;;-2.50;99.90;;;;;;4932269;28;20047;-85
2022/01/11 00:34:36;;;;;;;36.15;17.52;;;-2.60;99.90;;;;;;4930282;28;20054;-85
2022/01/11 00:37:02;;;;;;;50.10;19.40;;;-2.60;99.90;;;;;;4933264;28;20398;-85
2022/01/11 00:39:27;;;;;;;40.45;18.52;;;-2.50;99.90;;;;;;4930174;28;20035;-86
2022/01/11 00:41:53;;;;;;;37.83;18.48;;;-2.50;99.90;;;;;;4927682;28;20038;-86
2022/01/11 00:44:18;;;;;;;38.35;17.88;;;-2.60;99.90;;;;;;4931777;28;20039;-85
2022/01/11 00:46:45;;;;;;;41.58;18.40;;;-2.60;99.90;;;;;;4931981;28;20046;-86
2022/01/11 00:49:11;;;;;;;43.80;19.25;;;-2.60;99.90;;;;;;4946665;28;20527;-85
2022/01/11 00:51:36;;;;;;;42.03;20.23;;;-2.70;99.90;;;;;;4944411;28;20027;-86
2022/01/11 00:54:02;;;;;;;42.95;19.23;;;-2.70;99.90;;;;;;4925411;28;20729;-85
2022/01/11 00:56:28;;;;;;;37.50;19.05;;;-2.70;99.90;;;;;;4926917;28;20547;-86
2022/01/11 00:58:53;;;;;;;57.38;20.05;;;-2.70;99.90;;;;;;4943357;28;20043;-86
2022/01/11 01:01:19;;;;;;;47.97;19.65;;;-2.70;99.90;;;;;;4928298;28;20051;-85
2022/01/11 01:03:44;;;;;;;47.08;20.02;;;-2.70;99.90;;;;;;4940729;28;20035;-86
2022/01/11 01:06:10;;;;;;;38.22;19.15;;;-2.70;99.90;;;;;;4925936;28;20034;-86
2022/01/11 01:08:35;;;;;;;44.53;20.67;;;-2.70;99.90;;;;;;4928568;28;20533;-85
2022/01/11 01:11:01;;;;;;;43.40;19.30;;;-2.70;99.90;;;;;;4931432;28;20031;-86
2022/01/11 01:13:27;;;;;;;44.50;18.33;;;-2.80;99.90;;;;;;4927859;28;20102;-86
2022/01/11 01:15:54;;;;;;;45.60;18.23;;;-2.80;99.90;;;;;;4938640;28;20047;-85
2022/01/11 01:18:22;;;;;;;42.65;18.52;;;-2.70;99.90;;;;;;4929096;28;20453;-86
2022/01/11 01:20:48;;;;;;;37.65;17.75;;;-2.70;99.90;;;;;;4959369;28;20023;-86
2022/01/11 01:23:14;;;;;;;37.72;17.65;;;-2.80;99.90;;;;;;4927041;28;20023;-86
2022/01/11 01:25:42;;;;;;;42.28;18.75;;;-2.70;99.90;;;;;;4938831;28;20376;-85
2022/01/11 01:28:07;;;;;;;38.38;18.02;;;-2.80;99.90;;;;;;4931163;28;20034;-86
2022/01/11 01:30:33;;;;;;;40.53;17.60;;;-2.80;99.90;;;;;;4923996;28;20035;-86
2022/01/11 01:32:59;;;;;;;39.70;17.40;;;-2.70;99.90;;;;;;4931754;28;20034;-85
2022/01/11 01:35:29;;;;;;;40.17;17.10;;;-2.60;99.90;;;;;;4929862;28;20035;-85
2022/01/11 01:37:55;;;;;;;31.80;16.20;;;-2.70;99.90;;;;;;4938657;28;20090;-86
2022/01/11 01:40:21;;;;;;;36.05;16.23;;;-2.80;99.90;;;;;;4941016;28;20439;-85
2022/01/11 01:42:47;;;;;;;40.20;16.52;;;-2.60;99.90;;;;;;4933414;28;20034;-86
2022/01/11 01:45:13;;;;;;;45.85;18.60;;;-2.60;99.90;;;;;;4926819;28;20031;-85
2022/01/11 01:47:38;;;;;;;38.03;18.00;;;-2.70;99.90;;;;;;4943696;28;20031;-85
2022/01/11 01:50:06;;;;;;;37.10;17.67;;;-2.80;99.90;;;;;;4917720;28;20031;-85
2022/01/11 01:52:32;;;;;;;38.80;16.40;;;-2.60;99.90;;;;;;4941356;28;20094;-86
2022/01/11 01:54:57;;;;;;;37.67;17.42;;;-2.70;99.90;;;;;;4931941;28;20027;-86
2022/01/11 01:57:24;;;;;;;35.20;16.73;;;-2.70;99.90;;;;;;4929761;28;20041;-85
2022/01/11 01:59:50;;;;;;;36.65;16.65;;;-2.80;99.90;;;;;;4953775;28;20068;-86
2022/01/11 02:02:15;;;;;;;43.72;19.00;;;-2.70;99.90;;;;;;4908343;28;20136;-86
2022/01/11 02:04:41;;;;;;;36.13;17.25;;;-2.80;99.90;;;;;;4925301;28;20027;-85
2022/01/11 02:07:07;;;;;;;35.80;16.48;;;-2.70;99.90;;;;;;4941728;28;20047;-86
2022/01/11 02:09:32;;;;;;;35.60;17.02;;;-2.80;99.90;;;;;;4930215;28;20051;-85
2022/01/11 02:11:58;;;;;;;36.67;16.88;;;-2.80;99.90;;;;;;4931684;28;20035;-86
2022/01/11 02:14:23;;;;;;;35.83;15.73;;;-2.90;99.90;;;;;;4937847;28;20049;-86
2022/01/11 02:16:49;;;;;;;41.60;16.05;;;-3.00;99.90;;;;;;4932356;28;20399;-86
2022/01/11 02:19:14;;;;;;;35.67;15.38;;;-3.00;99.90;;;;;;4925017;28;20155;-86
2022/01/11 02:21:40;;;;;;;40.83;17.13;;;-3.00;99.90;;;;;;4955100;28;20019;-85
2022/01/11 02:24:06;;;;;;;41.53;17.90;;;-3.00;99.90;;;;;;4925979;28;20529;-86
2022/01/11 02:26:31;;;;;;;33.83;16.02;;;-2.90;99.90;;;;;;4922011;28;20038;-86
2022/01/11 02:28:57;;;;;;;35.35;16.95;;;-3.00;99.90;;;;;;4953878;28;20129;-86
2022/01/11 02:31:23;;;;;;;44.53;16.65;;;-3.00;99.90;;;;;;4924427;28;20051;-86
2022/01/11 02:33:54;;;;;;;44.17;18.55;;;-3.10;99.90;;;;;;4942972;28;20027;-85
2022/01/11 02:36:23;;;;;;;43.80;17.33;;;-3.10;99.90;;;;;;4917728;28;20097;-86
2022/01/11 02:38:50;;;;;;;35.50;16.25;;;-3.20;99.90;;;;;;4928957;28;20509;-85
2022/01/11 02:41:15;;;;;;;38.08;16.80;;;-3.00;99.90;;;;;;4927572;28;20081;-86
2022/01/11 02:43:47;;;;;;;34.80;16.90;;;-3.10;99.90;;;;;;4915298;28;20732;-85
2022/01/11 02:46:13;;;;;;;21.98;11.10;;;-3.10;99.90;;;;;;4926618;28;20089;-85
2022/01/11 02:48:38;;;;;;;31.95;12.23;;;-3.00;99.90;;;;;;4957656;28;20399;-85
2022/01/11 02:51:04;;;;;;;32.60;15.73;;;-2.70;99.90;;;;;;4913987;28;20036;-86
2022/01/11 02:53:30;;;;;;;32.00;15.60;;;-2.60;99.90;;;;;;4928902;28;20569;-86
2022/01/11 02:55:56;;;;;;;32.83;15.98;;;-2.70;99.90;;;;;;4945192;28;20031;-86
2022/01/11 02:58:21;;;;;;;24.52;11.90;;;-2.60;99.90;;;;;;4927784;28;20042;-86
2022/01/11 03:00:47;;;;;;;25.73;12.60;;;-2.50;99.90;;;;;;4925181;28;20054;-86
2022/01/11 03:03:23;;;;;;;32.88;14.75;;;-2.40;99.90;;;;;;4927481;28;20059;-86
2022/01/11 03:05:51;;;;;;;31.45;15.35;;;-2.80;99.90;;;;;;4927627;28;20039;-86
2022/01/11 03:08:17;;;;;;;39.25;17.58;;;-2.70;99.90;;;;;;4936478;28;20126;-86
2022/01/11 03:10:43;;;;;;;41.17;15.65;;;-3.10;99.90;;;;;;4927102;28;20027;-87
2022/01/11 03:13:09;;;;;;;33.45;14.85;;;-3.30;99.90;;;;;;4931402;28;20027;-86
2022/01/11 03:15:35;;;;;;;33.22;15.48;;;-3.40;99.90;;;;;;4925693;28;20027;-86
2022/01/11 03:18:01;;;;;;;30.20;14.15;;;-3.40;99.90;;;;;;4928065;28;20042;-86
2022/01/11 03:20:27;;;;;;;33.00;15.23;;;-3.40;99.90;;;;;;4927645;28;20035;-86
2022/01/11 03:22:52;;;;;;;36.58;15.85;;;-3.40;99.90;;;;;;4937744;28;20126;-86
2022/01/11 03:25:18;;;;;;;26.27;13.60;;;-3.50;99.90;;;;;;4938432;28;20118;-86
2022/01/11 03:27:44;;;;;;;32.50;14.07;;;-3.50;99.90;;;;;;4938343;28;20086;-86
2022/01/11 03:30:10;;;;;;;29.75;15.18;;;-3.60;99.90;;;;;;4935023;28;20098;-85
2022/01/11 03:32:35;;;;;;;35.13;14.55;;;-3.50;99.90;;;;;;4923986;28;20047;-86
2022/01/11 03:35:01;;;;;;;30.08;14.43;;;-3.50;99.90;;;;;;4948322;28;20042;-86
2022/01/11 03:37:27;;;;;;;31.13;13.75;;;-3.50;99.90;;;;;;4941697;28;20503;-86
2022/01/11 03:39:52;;;;;;;31.30;14.55;;;-3.50;99.90;;;;;;4928501;28;20090;-86
2022/01/11 03:42:18;;;;;;;31.23;14.73;;;-3.50;99.90;;;;;;4943996;28;20081;-85
2022/01/11 03:44:43;;;;;;;32.00;15.13;;;-3.50;99.90;;;;;;4928741;28;20649;-86
2022/01/11 03:47:09;;;;;;;29.77;13.85;;;-3.50;99.90;;;;;;4930463;28;20106;-86
2022/01/11 03:49:35;;;;;;;26.65;12.68;;;-3.40;99.90;;;;;;4939971;28;20095;-86
2022/01/11 03:52:00;;;;;;;29.00;13.25;;;-3.30;99.90;;;;;;4932969;28;20504;-82
2022/01/11 03:54:29;;;;;;;30.60;14.05;;;-3.20;99.90;;;;;;4931216;28;20090;-82
2022/01/11 03:56:55;;;;;;;27.05;13.55;;;-3.40;99.90;;;;;;4942244;28;20484;-82
2022/01/11 03:59:20;;;;;;;30.73;13.52;;;-3.50;99.90;;;;;;4946346;28;20046;-83
2022/01/11 04:01:46;;;;;;;21.27;11.15;;;-3.50;99.90;;;;;;4943549;28;20086;-83
2022/01/11 04:04:12;;;;;;;28.05;13.18;;;-3.40;99.90;;;;;;4928497;28;20114;-82
2022/01/11 04:06:38;;;;;;;32.25;15.10;;;-3.30;99.90;;;;;;4944639;28;20105;-82
2022/01/11 04:09:04;;;;;;;30.63;15.43;;;-3.40;99.90;;;;;;4917502;28;20077;-82
2022/01/11 04:11:30;;;;;;;32.65;15.20;;;-3.70;99.90;;;;;;4954948;28;20047;-83
2022/01/11 04:13:55;;;;;;;27.40;14.23;;;-3.50;99.90;;;;;;4929846;28;20027;-83
2022/01/11 04:16:21;;;;;;;28.25;13.90;;;-3.60;99.90;;;;;;4929042;28;20122;-82
2022/01/11 04:18:46;;;;;;;28.38;13.60;;;-3.60;99.90;;;;;;4956682;28;20024;-83
2022/01/11 04:21:12;;;;;;;24.83;13.30;;;-3.60;99.90;;;;;;4947281;28;20446;-83
2022/01/11 04:23:39;;;;;;;26.85;13.40;;;-3.60;99.90;;;;;;4928740;28;20027;-83
2022/01/11 04:26:04;;;;;;;27.40;12.68;;;-3.70;99.90;;;;;;4917632;28;20071;-82
2022/01/11 04:28:30;;;;;;;34.08;13.50;;;-3.60;99.90;;;;;;4942034;28;20070;-82
2022/01/11 04:30:58;;;;;;;28.20;13.73;;;-3.60;99.90;;;;;;4926060;28;20032;-82
2022/01/11 04:33:24;;;;;;;28.13;14.10;;;-3.50;99.90;;;;;;4932008;28;20031;-82
2022/01/11 04:35:50;;;;;;;28.40;13.48;;;-3.50;99.90;;;;;;4943287;28;20038;-83
2022/01/11 04:38:17;;;;;;;36.28;14.75;;;-3.40;99.90;;;;;;4929975;28;20027;-83
2022/01/11 04:40:43;;;;;;;25.77;12.43;;;-3.50;99.90;;;;;;4926744;28;20024;-83
2022/01/11 04:43:08;;;;;;;26.33;12.50;;;-3.40;99.90;;;;;;4942504;28;20066;-82
2022/01/11 04:45:34;;;;;;;21.88;11.55;;;-3.40;99.90;;;;;;4927613;28;20026;-83
2022/01/11 04:48:00;;;;;;;26.77;12.07;;;-3.30;99.90;;;;;;4933199;28;20510;-83
2022/01/11 04:50:26;;;;;;;27.73;11.85;;;-3.40;99.90;;;;;;4932922;28;20045;-82
2022/01/11 04:52:52;;;;;;;28.98;11.23;;;-3.40;99.90;;;;;;4937465;28;20808;-82
2022/01/11 04:55:17;;;;;;;19.73;9.80;;;-3.30;99.90;;;;;;4927201;28;20039;-82
2022/01/11 04:57:43;;;;;;;21.85;11.18;;;-3.20;99.90;;;;;;4928441;28;20070;-82
2022/01/11 05:00:09;;;;;;;26.17;12.65;;;-3.10;99.90;;;;;;4929506;28;20510;-83
2022/01/11 05:02:35;;;;;;;26.70;12.20;;;-3.00;99.90;;;;;;4921554;28;20487;-82
2022/01/11 05:05:00;;;;;;;27.17;11.88;;;-3.30;99.90;;;;;;4932033;28;20094;-82
2022/01/11 05:07:26;;;;;;;27.38;11.52;;;-3.10;99.90;;;;;;4932334;28;20051;-82
2022/01/11 05:09:53;;;;;;;25.38;11.88;;;-3.30;99.90;;;;;;4916115;28;20054;-82
2022/01/11 05:12:19;;;;;;;28.52;11.65;;;-3.40;99.90;;;;;;4928782;28;20062;-82
2022/01/11 05:14:44;;;;;;;27.23;11.43;;;-3.50;99.90;;;;;;4939894;28;20035;-82
2022/01/11 05:17:10;;;;;;;32.42;11.73;;;-3.60;99.90;;;;;;4930081;28;20042;-82
2022/01/11 05:19:35;;;;;;;22.80;11.50;;;-3.70;99.90;;;;;;4941451;28;20039;-82
2022/01/11 05:22:01;;;;;;;23.73;10.35;;;-3.30;99.90;;;;;;4931906;28;20034;-82
2022/01/11 05:24:26;;;;;;;27.95;12.77;;;-3.20;99.90;;;;;;4942795;28;20026;-82
2022/01/11 05:26:53;;;;;;;16.27;8.68;;;-3.40;99.90;;;;;;4932055;28;20070;-82
2022/01/11 05:29:18;;;;;;;17.83;8.20;;;-3.20;99.90;;;;;;4940939;28;20097;-83
2022/01/11 05:31:44;;;;;;;29.35;12.25;;;-2.90;99.90;;;;;;4931359;28;20043;-83
2022/01/11 05:34:09;;;;;;;20.33;10.48;;;-3.10;99.90;;;;;;4937680;28;20121;-82
2022/01/11 05:36:35;;;;;;;24.42;11.48;;;-3.10;99.90;;;;;;4937763;28;20041;-83
2022/01/11 05:39:00;;;;;;;21.65;11.00;;;-3.00;99.90;;;;;;4928854;28;20445;-83
2022/01/11 05:41:26;;;;;;;24.70;10.30;;;-3.30;99.90;;;;;;4928129;28;20035;-82
2022/01/11 05:43:51;;;;;;;16.77;8.52;;;-3.10;99.90;;;;;;4943444;28;20114;-83
2022/01/11 05:46:17;;;;;;;28.73;12.88;;;-3.00;99.90;;;;;;4926926;28;20081;-83
2022/01/11 05:48:45;;;;;;;25.65;12.35;;;-3.40;99.90;;;;;;4917309;28;20038;-83
2022/01/11 05:51:11;;;;;;;26.60;12.73;;;-3.70;99.90;;;;;;4941563;28;20027;-82
2022/01/11 05:53:37;;;;;;;28.25;12.20;;;-3.80;99.90;;;;;;4926342;28;20039;-82
2022/01/11 05:56:03;;;;;;;29.73;12.55;;;-3.80;99.90;;;;;;4939448;28;20019;-82
2022/01/11 05:58:28;;;;;;;23.75;10.77;;;-3.90;99.90;;;;;;4926167;28;20557;-83
2022/01/11 06:00:54;;;;;;;24.75;10.15;;;-3.80;99.90;;;;;;4925748;28;20031;-83
2022/01/11 06:03:20;;;;;;;27.48;12.48;;;-3.60;99.90;;;;;;4940184;28;20663;-83
2022/01/11 06:05:45;;;;;;;20.30;9.60;;;-3.70;99.90;;;;;;4943320;28;20055;-82
2022/01/11 06:08:16;;;;;;;25.08;10.95;;;-3.60;99.90;;;;;;4925587;28;20066;-82
2022/01/11 06:10:42;;;;;;;27.30;12.05;;;-3.40;99.90;;;;;;4928382;28;20038;-82
2022/01/11 06:13:07;;;;;;;26.50;12.65;;;-3.40;99.90;;;;;;4938314;28;20026;-83
2022/01/11 06:15:34;;;;;;;27.98;10.25;;;-3.30;99.90;;;;;;4941900;28;20035;-83
2022/01/11 06:17:59;;;;;;;28.50;11.50;;;-3.20;99.90;;;;;;4929879;28;20031;-82
2022/01/11 06:20:25;;;;;;;25.60;11.48;;;-3.20;99.90;;;;;;4937175;28;20039;-82
2022/01/11 06:22:51;;;;;;;25.90;11.65;;;-3.50;99.90;;;;;;4922007;28;20032;-82
2022/01/11 06:25:16;;;;;;;24.30;11.57;;;-3.60;99.90;;;;;;4940680;28;20051;-82
2022/01/11 06:27:42;;;;;;;33.42;11.88;;;-3.60;99.90;;;;;;4942841;28;20027;-82
2022/01/11 06:30:09;;;;;;;32.88;14.15;;;-3.60;99.90;;;;;;4927058;28;20118;-83
2022/01/11 06:32:35;;;;;;;28.17;12.88;;;-3.70;99.90;;;;;;4927006;28;20669;-82
2022/01/11 06:35:00;;;;;;;31.45;13.65;;;-3.90;99.90;;;;;;4940047;28;20062;-82
2022/01/11 06:37:26;;;;;;;27.80;12.35;;;-3.90;99.90;;;;;;4931779;28;20110;-82
2022/01/11 06:39:51;;;;;;;31.90;12.80;;;-4.00;99.90;;;;;;4911299;29;20478;-83
2022/01/11 06:42:17;;;;;;;33.08;12.90;;;-4.00;99.90;;;;;;4913744;28;20576;-83
2022/01/11 06:44:43;;;;;;;35.42;12.82;;;-4.00;99.90;;;;;;4939228;28;20491;-83
2022/01/11 06:47:09;;;;;;;27.08;10.40;;;-3.90;99.90;;;;;;4915257;28;20519;-83
2022/01/11 06:49:34;;;;;;;25.90;11.95;;;-3.70;99.90;;;;;;4940920;28;20035;-83
2022/01/11 06:52:00;;;;;;;25.25;11.70;;;-3.60;99.90;;;;;;4938668;28;20031;-83
2022/01/11 06:54:25;;;;;;;32.70;14.07;;;-3.90;99.90;;;;;;4931594;28;20034;-82
2022/01/11 06:56:51;;;;;;;29.73;13.13;;;-4.00;99.90;;;;;;4944323;28;20027;-82
2022/01/11 06:59:16;;;;;;;32.38;12.13;;;-4.10;99.90;;;;;;4935558;28;20042;-82
2022/01/11 07:01:42;;;;;;;33.55;13.98;;;-4.20;99.90;;;;;;4942336;28;20055;-83
2022/01/11 07:04:07;;;;;;;29.17;12.52;;;-4.20;99.90;;;;;;4932103;28;20066;-82
2022/01/11 07:06:33;;;;;;;29.90;12.82;;;-4.20;99.90;;;;;;4944390;28;20150;-82
2022/01/11 07:08:58;;;;;;;32.67;14.20;;;-4.20;99.90;;;;;;4944066;28;20034;-83
2022/01/11 07:11:24;;;;;;;32.40;13.48;;;-4.20;99.90;;;;;;4917620;28;20050;-83
2022/01/11 07:13:50;;;;;;;35.50;14.95;;;-4.30;99.90;;;;;;4943139;28;20030;-83
2022/01/11 07:16:15;;;;;;;30.45;12.77;;;-4.30;99.90;;;;;;4934819;28;20454;-82
2022/01/11 07:18:41;;;;;;;31.70;13.95;;;-4.30;99.90;;;;;;4943560;28;20113;-83
2022/01/11 07:21:07;;;;;;;39.25;14.55;;;-4.20;99.90;;;;;;4930902;28;20054;-82
2022/01/11 07:23:33;;;;;;;41.38;14.63;;;-4.20;99.90;;;;;;4944317;28;20031;-83
2022/01/11 07:25:59;;;;;;;33.20;13.73;;;-4.10;99.90;;;;;;4933495;28;20019;-83
2022/01/11 07:28:24;;;;;;;32.85;13.80;;;-4.10;99.90;;;;;;4931222;28;20036;-83
2022/01/11 07:30:51;;;;;;;39.15;16.38;;;-4.10;99.90;;;;;;4942017;28;20031;-83
2022/01/11 07:33:16;;;;;;;36.42;13.35;;;-4.10;99.90;;;;;;4929648;28;20043;-82
2022/01/11 07:35:42;;;;;;;34.30;12.82;;;-4.20;99.90;;;;;;4926830;28;20057;-89
2022/01/11 07:38:08;;;;;;;30.13;12.73;;;-4.20;99.90;;;;;;4932446;28;20037;-86
2022/01/11 07:40:34;;;;;;;29.30;12.73;;;-4.20;99.90;;;;;;4940959;28;20034;-86
2022/01/11 07:42:59;;;;;;;34.88;13.80;;;-4.20;99.90;;;;;;4927999;28;20041;-87
2022/01/11 07:45:25;;;;;;;36.58;14.00;;;-4.20;99.90;;;;;;4922120;28;20098;-87
2022/01/11 07:47:51;;;;;;;33.78;14.38;;;-4.20;99.90;;;;;;4942008;28;20028;-86
2022/01/11 07:50:16;;;;;;;32.72;14.15;;;-4.20;99.90;;;;;;4934525;28;20065;-87
2022/01/11 07:52:42;;;;;;;35.25;14.48;;;-4.10;99.90;;;;;;4929288;28;20127;-86
2022/01/11 07:55:08;;;;;;;32.00;14.60;;;-4.10;99.90;;;;;;4942930;28;20037;-86
2022/01/11 07:57:33;;;;;;;31.27;15.00;;;-4.00;99.90;;;;;;4929871;28;20034;-87
2022/01/11 08:00:03;;;;;;;35.20;16.05;;;-4.10;99.90;;;;;;4945832;28;20480;-87
2022/01/11 08:02:29;;;;;;;39.38;14.98;;;-4.10;99.90;;;;;;4920997;28;20049;-87
2022/01/11 08:04:55;;;;;;;31.08;14.38;;;-4.10;99.90;;;;;;4931599;28;20031;-87
2022/01/11 08:07:20;;;;;;;37.03;15.80;;;-4.00;99.90;;;;;;4942649;28;20050;-87
2022/01/11 08:09:49;;;;;;;35.33;15.30;;;-4.00;99.90;;;;;;4933933;28;20039;-87
2022/01/11 08:12:20;;;;;;;34.42;15.05;;;-4.10;99.90;;;;;;4919797;28;20039;-87
2022/01/11 08:15:15;;;;;;;30.67;14.40;;;-4.00;99.90;;;;;;4923257;28;20098;-87
2022/01/11 08:17:42;;;;;;;20.17;9.05;;;-3.90;99.90;;;;;;4931435;28;20043;-87
2022/01/11 08:20:08;;;;;;;21.55;8.80;;;-3.70;99.90;;;;;;4915445;28;20372;-87
2022/01/11 08:22:34;;;;;;;32.95;13.02;;;-3.70;99.90;;;;;;4916816;28;20046;-87
2022/01/11 08:25:00;;;;;;;30.85;14.73;;;-3.50;99.90;;;;;;4943893;28;20035;-87
2022/01/11 08:27:25;;;;;;;31.27;14.05;;;-3.40;99.90;;;;;;4930232;28;20568;-87
2022/01/11 08:29:51;;;;;;;34.97;13.70;;;-3.50;99.90;;;;;;4926466;28;20086;-87
2022/01/11 08:32:16;;;;;;;29.20;14.07;;;-3.50;99.90;;;;;;4926743;28;20042;-87
2022/01/11 08:34:44;;;;;;;28.85;13.48;;;-3.30;99.90;;;;;;4930547;28;20042;-87
2022/01/11 08:37:09;;;;;;;30.35;14.30;;;-3.10;99.90;;;;;;4927661;28;20054;-86
2022/01/11 08:39:36;;;;;;;32.33;14.57;;;-3.00;99.90;;;;;;4922451;28;20096;-87
2022/01/11 08:42:02;;;;;;;33.00;16.67;;;-3.20;99.90;;;;;;4941351;28;22842;-86
2022/01/11 08:44:28;;;;;;;31.55;14.48;;;-3.20;99.90;;;;;;4930401;28;20035;-87
2022/01/11 08:46:54;;;;;;;31.27;15.10;;;-3.30;99.90;;;;;;4923535;28;20035;-86
2022/01/11 08:49:20;;;;;;;25.92;10.95;;;-3.20;99.90;;;;;;4900890;29;20047;-87
2022/01/11 08:51:47;;;;;;;25.92;10.85;;;-2.90;99.90;;;;;;4930427;28;20443;-87
2022/01/11 08:54:13;;;;;;;26.77;13.63;;;-2.50;99.90;;;;;;4916723;28;20035;-87
2022/01/11 08:56:39;;;;;;;20.13;10.10;;;-2.30;99.90;;;;;;4927592;28;20039;-87
2022/01/11 08:59:05;;;;;;;38.35;16.95;;;-2.10;99.90;;;;;;4945309;28;20031;-87
2022/01/11 09:01:31;;;;;;;25.15;11.70;;;-2.10;99.90;;;;;;4927259;28;20057;-87
2022/01/11 09:03:58;;;;;;;26.67;12.38;;;-1.90;99.90;;;;;;4919807;28;20038;-87
2022/01/11 09:06:23;;;;;;;22.73;10.07;;;-1.80;99.90;;;;;;4925099;28;20109;-87
2022/01/11 09:08:50;;;;;;;21.92;9.55;;;-1.60;99.90;;;;;;4946255;28;20042;-88
2022/01/11 09:11:16;;;;;;;20.52;10.30;;;-1.50;99.90;;;;;;4931794;28;20027;-87
2022/01/11 09:13:41;;;;;;;22.40;10.35;;;-1.40;99.90;;;;;;4943476;28;20027;-87
2022/01/11 09:16:07;;;;;;;21.20;9.50;;;-1.30;99.90;;;;;;4914667;28;20028;-87
2022/01/11 09:18:34;;;;;;;22.80;12.00;;;-1.20;99.90;;;;;;4887888;28;20507;-87
2022/01/11 09:21:03;;;;;;;21.50;10.18;;;-1.10;99.90;;;;;;4912536;28;20027;-87
2022/01/11 09:23:28;;;;;;;22.05;9.40;;;-1.00;99.90;;;;;;4927743;28;20062;-87
2022/01/11 09:25:54;;;;;;;17.33;9.43;;;-0.90;99.90;;;;;;4923693;28;20039;-87
2022/01/11 09:28:20;;;;;;;22.27;11.13;;;-0.80;99.90;;;;;;4922894;28;20063;-87
2022/01/11 09:30:46;;;;;;;19.77;10.30;;;-0.70;99.90;;;;;;4933284;28;20038;-87
2022/01/11 09:33:11;;;;;;;32.45;15.88;;;-0.60;99.90;;;;;;4929195;28;20043;-87
2022/01/11 09:35:41;;;;;;;34.30;16.48;;;-1.00;99.90;;;;;;4933027;28;20031;-87
2022/01/11 09:38:07;;;;;;;19.98;10.85;;;-1.10;99.90;;;;;;4922038;28;20039;-87
2022/01/11 09:40:34;;;;;;;29.05;13.48;;;-0.50;99.90;;;;;;4920599;28;20043;-87
2022/01/11 09:42:59;;;;;;;25.48;11.27;;;-0.20;99.90;;;;;;4930650;28;20046;-87
2022/01/11 09:45:25;;;;;;;18.63;9.80;;;0.00;99.90;;;;;;4932208;28;20072;-86
2022/01/11 09:47:50;;;;;;;21.95;10.30;;;0.20;99.90;;;;;;4941993;28;20046;-86
2022/01/11 09:50:16;;;;;;;17.27;9.40;;;0.30;99.90;;;;;;4931712;28;20039;-87
2022/01/11 09:52:42;;;;;;;20.23;10.20;;;0.60;99.90;;;;;;4930944;28;20746;-86
2022/01/11 09:55:10;;;;;;;22.13;11.40;;;0.80;99.90;;;;;;4929028;28;20063;-86
2022/01/11 09:57:37;;;;;;;22.98;10.77;;;1.00;99.90;;;;;;4943775;28;20039;-86
2022/01/11 10:00:11;;;;;;;21.60;10.45;;;1.10;99.90;;;;;;4927402;28;20081;-86
2022/01/11 10:02:37;;;;;;;23.90;11.02;;;1.30;99.90;;;;;;4931306;28;20035;-86
2022/01/11 10:05:05;;;;;;;20.08;10.88;;;1.50;99.90;;;;;;4922126;28;20038;-86
2022/01/11 10:07:37;;;;;;;18.25;10.02;;;1.50;99.90;;;;;;4900952;28;20090;-86
2022/01/11 10:10:03;;;;;;;20.55;10.07;;;1.70;99.90;;;;;;4931748;28;20062;-86
2022/01/11 10:12:34;;;;;;;20.20;10.38;;;1.60;99.90;;;;;;4928157;28;20042;-86
2022/01/11 10:15:00;;;;;;;21.63;10.40;;;1.80;99.90;;;;;;4928630;28;20031;-86
2022/01/11 10:17:30;;;;;;;25.13;11.48;;;1.80;99.90;;;;;;4932925;28;20046;-86
2022/01/11 10:20:11;;;;;;;18.85;10.32;;;2.00;99.90;;;;;;4927917;28;20482;-86
2022/01/11 10:22:47;;;;;;;26.70;11.75;;;2.30;99.90;;;;;;4918131;28;20075;-86
2022/01/11 10:25:15;;;;;;;19.80;10.25;;;2.40;99.90;;;;;;4918423;28;20488;-87
2022/01/11 10:27:40;;;;;;;30.27;15.40;;;2.70;99.90;;;;;;4919030;28;20057;-86
2022/01/11 10:30:08;;;;;;;21.52;11.43;;;2.80;99.90;;;;;;4928447;28;20063;-86
2022/01/11 10:32:36;;;;;;;21.77;10.23;;;3.20;99.90;;;;;;4931001;28;20046;-86
2022/01/11 10:35:06;;;;;;;17.38;9.77;;;3.30;99.90;;;;;;4931590;28;20078;-86
2022/01/11 10:37:39;;;;;;;22.40;11.23;;;3.40;99.90;;;;;;4927728;28;20039;-87
2022/01/11 10:40:19;;;;;;;19.58;10.13;;;3.50;99.90;;;;;;4906586;28;20046;-87
2022/01/11 10:42:55;;;;;;;19.25;10.38;;;3.70;99.90;;;;;;4914310;28;20031;-87
2022/01/11 10:45:22;;;;;;;22.88;10.57;;;3.80;99.90;;;;;;4941606;28;20135;-86
2022/01/11 10:47:50;;;;;;;18.90;10.77;;;4.10;99.90;;;;;;4929582;28;20030;-86
2022/01/11 10:50:26;;;;;;;19.77;10.20;;;4.20;99.90;;;;;;4929553;28;20058;-87
2022/01/11 10:52:51;;;;;;;18.40;9.38;;;4.40;99.90;;;;;;4943437;28;20514;-87
2022/01/11 10:55:21;;;;;;;20.35;11.38;;;4.60;99.90;;;;;;4935193;28;20060;-86
2022/01/11 10:57:55;;;;;;;18.70;9.43;;;4.80;99.90;;;;;;4932195;28;20042;-86
2022/01/11 11:00:29;;;;;;;18.10;10.57;;;5.00;99.90;;;;;;4926644;28;20197;-86
2022/01/11 11:03:00;;;;;;;17.13;9.50;;;5.10;99.90;;;;;;4926114;28;20039;-86
2022/01/11 11:05:31;;;;;;;19.25;9.40;;;5.30;99.90;;;;;;4918044;28;20051;-86
2022/01/11 11:08:07;;;;;;;17.92;10.00;;;5.40;99.90;;;;;;4892637;29;20095;-87
2022/01/11 11:10:39;;;;;;;14.88;9.20;;;5.60;99.90;;;;;;4924107;28;20046;-86
2022/01/11 11:13:08;;;;;;;18.88;9.75;;;5.90;99.90;;;;;;4931739;28;20133;-86
2022/01/11 11:15:36;;;;;;;17.67;9.60;;;5.90;99.90;;;;;;4927853;28;20492;-86
2022/01/11 11:18:05;;;;;;;18.13;9.35;;;6.00;99.90;;;;;;4946709;28;20934;-86
2022/01/11 11:20:32;;;;;;;23.92;11.63;;;6.30;99.90;;;;;;4929597;28;20042;-86
2022/01/11 11:22:58;;;;;;;17.05;9.75;;;6.50;99.90;;;;;;4946298;28;20027;-85
2022/01/11 11:25:24;;;;;;;19.70;10.35;;;6.60;99.90;;;;;;4932895;28;20039;-86
2022/01/11 11:27:50;;;;;;;20.15;10.57;;;6.80;99.90;;;;;;4932297;28;20369;-86
2022/01/11 11:30:15;;;;;;;14.65;9.30;;;7.00;99.90;;;;;;4911800;28;20035;-86
2022/01/11 11:32:41;;;;;;;19.33;10.07;;;7.10;99.90;;;;;;4933112;28;20039;-86
2022/01/11 11:35:07;;;;;;;15.43;9.30;;;7.30;99.90;;;;;;4899860;28;20028;-86
2022/01/11 11:37:39;;;;;;;17.55;10.70;;;7.40;99.90;;;;;;4906731;28;20035;-85
2022/01/11 11:40:13;;;;;;;19.70;9.63;;;7.60;99.90;;;;;;4928179;28;20039;-86
2022/01/11 11:42:39;;;;;;;22.17;11.95;;;7.70;99.90;;;;;;4924316;28;20392;-86
2022/01/11 11:45:15;;;;;;;20.73;10.45;;;7.90;99.90;;;;;;4946465;28;20023;-85
2022/01/11 11:47:41;;;;;;;20.25;11.25;;;8.20;99.90;;;;;;4925292;28;20090;-85
2022/01/11 11:50:14;;;;;;;17.42;9.52;;;8.30;99.90;;;;;;4913067;28;20035;-86
2022/01/11 11:52:42;;;;;;;17.77;10.10;;;8.40;99.90;;;;;;4915087;28;20060;-85
2022/01/11 11:55:09;;;;;;;19.33;10.05;;;8.60;99.90;;;;;;4934400;28;20039;-85
2022/01/11 11:57:36;;;;;;;18.58;9.50;;;8.70;99.90;;;;;;4921367;28;20134;-85
2022/01/11 12:00:08;;;;;;;20.45;10.65;;;8.80;99.90;;;;;;4940617;28;20035;-86
2022/01/11 12:02:38;;;;;;;17.88;9.57;;;8.90;99.90;;;;;;4932995;28;20127;-85
2022/01/11 12:05:05;;;;;;;23.92;10.60;;;9.00;99.90;;;;;;4954001;28;20035;-86
2022/01/11 12:07:36;;;;;;;19.75;9.75;;;9.10;99.90;;;;;;4939845;28;20110;-85
2022/01/11 12:10:06;;;;;;;18.30;9.38;;;9.30;99.90;;;;;;4954236;28;20043;-86
2022/01/11 12:12:55;;;;;;;18.20;9.70;;;9.30;99.90;;;;;;4932810;28;20050;-86
2022/01/11 12:15:33;;;;;;;18.30;10.18;;;9.50;99.90;;;;;;4929461;28;20068;-86
2022/01/11 12:18:00;;;;;;;16.00;9.10;;;9.70;99.90;;;;;;4955920;28;20588;-86
2022/01/11 12:20:48;;;;;;;19.95;10.32;;;9.50;99.90;;;;;;4939137;28;20032;-86
2022/01/11 12:23:37;;;;;;;17.55;9.95;;;9.60;99.90;;;;;;4931726;28;20046;-86
2022/01/11 12:26:16;;;;;;;21.75;9.95;;;9.90;99.90;;;;;;4940398;28;20073;-86
2022/01/11 12:29:13;;;;;;;14.63;7.97;;;10.10;99.90;;;;;;4907094;29;20032;-86